メインページ
METAR-TAF:

METAR-TAF

空港 :

Eastsound, ワシントン, アメリカ合衆国

Orcas Island Airport

緯度: 48-42-29N, 経度: 122-54-37W, 海抜: 9m

現時点の気象観測

当レポートは23分前の12:15(UTC)に作成
無風
気温 7°C
湿度 87%
気圧 1030 hPa
視程: 16.1km
高度2000ftの曇り

METAR: KORS 221215Z AUTO 00000KT 10SM OVC020 07/05 A3041 RMK AO2

時間: 05:38 (12:38 UTC)


TAF: 見つかりません

4,000以上の空港の気象観測と天気予報(METAR報とTAF報)

利用可能な観測所は地図上に黄色い丸と赤い丸で示す。

丸の上にカーソルを重ねると観測所名を参照できる。

次にクリックすると気象観測と天気予報を参照できる。

マップの切り替え:黒色「×」印の緑ボタンをクリックして拡大、「-」印の緑ボタンをクリックして縮小、緑色の三角印をクリックして隣りの地図に切り替え


METAR-TAF: